createdAt,value
2019-05-25T00:00:09.738Z,99982.58
2019-05-25T00:02:42.203Z,99986.00
2019-05-25T00:05:14.592Z,99984.58
2019-05-25T00:07:46.827Z,99986.16
2019-05-25T00:10:19.050Z,99988.67
2019-05-25T00:12:51.316Z,99991.98
2019-05-25T00:15:23.598Z,99998.20
2019-05-25T00:17:55.866Z,99995.09
2019-05-25T00:20:28.052Z,99990.16
2019-05-25T00:23:00.522Z,99992.39
2019-05-25T00:25:32.895Z,99989.52
2019-05-25T00:28:05.224Z,99987.45
2019-05-25T00:30:37.472Z,99983.64
2019-05-25T00:33:10.982Z,99981.13
2019-05-25T00:35:43.274Z,99964.30
2019-05-25T00:38:15.584Z,99970.78
2019-05-25T00:40:47.787Z,99970.34
2019-05-25T00:43:20.106Z,99970.64
2019-05-25T00:45:52.597Z,99966.75
2019-05-25T00:48:24.956Z,99966.61
2019-05-25T00:50:57.173Z,99967.61
2019-05-25T00:53:29.397Z,99965.13
2019-05-25T00:56:01.667Z,99963.23
2019-05-25T00:58:33.899Z,99959.39
2019-05-25T01:01:06.813Z,99959.67
2019-05-25T01:03:39.075Z,99957.25
2019-05-25T01:06:11.273Z,99952.82
2019-05-25T01:08:44.563Z,99951.11
2019-05-25T01:11:16.791Z,99955.95
2019-05-25T01:13:48.962Z,99956.73
2019-05-25T01:16:22.246Z,99954.84
2019-05-25T01:18:54.536Z,99953.36
2019-05-25T01:21:26.835Z,99955.00
2019-05-25T01:23:59.084Z,99950.99
2019-05-25T01:26:31.355Z,99945.67
2019-05-25T01:29:03.633Z,99941.77
2019-05-25T01:31:35.907Z,99946.70
2019-05-25T01:34:08.342Z,99937.77
2019-05-25T01:36:40.550Z,99938.86
2019-05-25T01:39:12.898Z,99941.97
2019-05-25T01:41:45.172Z,99947.75
2019-05-25T01:44:17.459Z,99947.05
2019-05-25T01:46:49.533Z,99939.22
2019-05-25T01:49:21.795Z,99946.16
2019-05-25T01:51:54.004Z,99950.03
2019-05-25T01:54:26.268Z,99952.70
2019-05-25T01:56:58.515Z,99943.69
2019-05-25T01:59:30.761Z,99950.92
2019-05-25T02:02:02.964Z,99946.11
2019-05-25T02:04:35.315Z,99944.19
2019-05-25T02:07:07.587Z,99945.33
2019-05-25T02:09:39.900Z,99960.88
2019-05-25T02:12:12.098Z,99967.80
2019-05-25T02:14:44.358Z,99960.20
2019-05-25T02:17:16.569Z,99960.84
2019-05-25T02:19:48.861Z,99955.95
2019-05-25T02:22:21.075Z,99949.81
2019-05-25T02:24:53.333Z,99949.91
2019-05-25T02:27:27.174Z,99954.77
2019-05-25T02:29:59.471Z,99955.16
2019-05-25T02:32:32.108Z,99951.36
2019-05-25T02:35:06.158Z,99957.63
2019-05-25T02:37:38.430Z,99960.58
2019-05-25T02:40:10.858Z,99963.09
2019-05-25T02:42:43.150Z,99960.39
2019-05-25T02:45:15.402Z,99967.71
2019-05-25T02:47:47.490Z,99966.11
2019-05-25T02:50:20.138Z,99967.84
2019-05-25T02:52:52.388Z,99973.26
2019-05-25T02:55:33.661Z,99968.48
2019-05-25T02:57:58.572Z,99977.87
2019-05-25T03:00:33.305Z,99970.80
2019-05-25T03:03:05.898Z,99973.31
2019-05-25T03:05:39.315Z,99974.88
2019-05-25T03:08:11.525Z,99969.16
2019-05-25T03:10:44.307Z,99969.08
2019-05-25T03:13:16.786Z,99972.25
2019-05-25T03:15:49.077Z,99970.45
2019-05-25T03:18:21.308Z,99975.02
2019-05-25T03:20:53.517Z,99978.48
2019-05-25T03:23:25.726Z,99975.05
2019-05-25T03:25:57.900Z,99979.43
2019-05-25T03:28:30.174Z,99981.06
2019-05-25T03:31:03.517Z,99975.70
2019-05-25T03:33:35.769Z,99984.64
2019-05-25T03:36:09.081Z,99988.36
2019-05-25T03:38:42.177Z,99991.25
2019-05-25T03:41:14.316Z,99990.52
2019-05-25T03:43:46.514Z,99986.00
2019-05-25T03:46:18.665Z,99985.72
2019-05-25T03:48:50.884Z,99982.00
2019-05-25T03:51:23.271Z,99988.00
2019-05-25T03:53:55.597Z,99981.13
2019-05-25T03:56:27.750Z,99973.45
2019-05-25T03:58:59.853Z,99973.42
2019-05-25T04:01:32.139Z,99975.16
2019-05-25T04:04:04.517Z,99966.00
2019-05-25T04:06:36.769Z,99978.36
2019-05-25T04:09:09.987Z,99966.61
2019-05-25T04:11:42.346Z,99970.52
2019-05-25T04:14:14.622Z,99971.64
2019-05-25T04:16:47.039Z,99972.64
2019-05-25T04:19:19.366Z,99972.77
2019-05-25T04:21:51.596Z,99977.83
2019-05-25T04:24:23.868Z,99983.07
2019-05-25T04:26:56.117Z,99984.78
2019-05-25T04:29:29.905Z,99991.52
2019-05-25T04:32:02.527Z,99990.05
2019-05-25T04:34:34.710Z,99995.69
2019-05-25T04:37:06.974Z,99998.27
2019-05-25T04:39:39.790Z,99997.45
2019-05-25T04:42:12.039Z,99994.89
2019-05-25T04:44:44.294Z,99996.32
2019-05-25T04:47:26.527Z,99988.23
2019-05-25T04:49:52.226Z,99985.11
2019-05-25T04:52:24.554Z,99990.06
2019-05-25T04:54:56.797Z,99994.48
2019-05-25T04:57:29.056Z,99989.80
2019-05-25T05:00:01.347Z,100002.84
2019-05-25T05:02:33.774Z,99998.86
2019-05-25T05:05:08.048Z,99994.88
2019-05-25T05:07:40.291Z,100000.03
2019-05-25T05:10:12.550Z,99995.95
2019-05-25T05:12:44.806Z,100000.05
2019-05-25T05:15:16.918Z,100001.20
2019-05-25T05:17:49.212Z,100007.19
2019-05-25T05:20:21.613Z,100002.03
2019-05-25T05:22:56.099Z,99999.98
2019-05-25T05:25:28.491Z,99997.33
2019-05-25T05:28:00.722Z,99999.19
2019-05-25T05:30:34.353Z,99997.62
2019-05-25T05:33:06.693Z,100008.92
2019-05-25T05:35:40.537Z,100013.95
2019-05-25T05:38:12.704Z,100009.84
2019-05-25T05:40:45.888Z,100013.13
2019-05-25T05:43:19.811Z,100006.25
2019-05-25T05:45:53.608Z,100009.23
2019-05-25T05:48:28.190Z,100007.11
2019-05-25T05:51:01.414Z,100012.96
2019-05-25T05:53:36.551Z,100014.45
2019-05-25T05:56:10.551Z,100016.37
2019-05-25T05:58:44.886Z,100015.27
2019-05-25T06:01:17.277Z,100022.75
2019-05-25T06:03:49.737Z,100014.08
2019-05-25T06:06:22.198Z,100017.23
2019-05-25T06:08:54.432Z,100014.70
2019-05-25T06:11:26.577Z,100014.52
2019-05-25T06:13:58.898Z,100020.24
2019-05-25T06:16:31.224Z,100017.05
2019-05-25T06:19:03.596Z,100021.93
2019-05-25T06:21:35.792Z,100009.80
2019-05-25T06:24:08.139Z,100015.08
2019-05-25T06:26:40.353Z,100010.77
2019-05-25T06:29:13.852Z,100001.20
2019-05-25T06:31:46.059Z,99991.95
2019-05-25T06:34:19.144Z,99990.30
2019-05-25T06:36:52.578Z,99990.12
2019-05-25T06:39:24.834Z,99987.42
2019-05-25T06:41:58.414Z,99984.07
2019-05-25T06:44:32.054Z,99979.92
2019-05-25T06:47:06.472Z,99975.06
2019-05-25T06:49:38.806Z,99978.69
2019-05-25T06:52:11.081Z,99981.02
2019-05-25T06:54:45.923Z,99977.31
2019-05-25T06:57:18.630Z,99982.00
2019-05-25T06:59:51.755Z,99975.72
2019-05-25T07:02:24.110Z,99978.69
2019-05-25T07:04:56.381Z,99979.11
2019-05-25T07:07:28.703Z,99960.96
2019-05-25T07:10:00.902Z,99967.17
2019-05-25T07:12:34.196Z,99961.48
2019-05-25T07:15:08.335Z,99958.95
2019-05-25T07:17:40.958Z,99960.84
2019-05-25T07:20:14.189Z,99958.11
2019-05-25T07:22:46.410Z,99953.10
2019-05-25T07:25:20.325Z,99952.69
2019-05-25T07:27:59.684Z,99948.86
2019-05-25T07:30:26.846Z,99949.16
2019-05-25T07:32:59.466Z,99951.45
2019-05-25T07:35:31.765Z,99949.52
2019-05-25T07:38:04.043Z,99946.17
2019-05-25T07:40:37.784Z,99952.56
2019-05-25T07:43:09.951Z,99952.72
2019-05-25T07:45:42.827Z,99952.07
2019-05-25T07:48:15.070Z,99950.77
2019-05-25T07:50:48.413Z,99944.17
2019-05-25T07:53:24.422Z,99950.88
2019-05-25T07:56:01.603Z,99953.47
2019-05-25T07:58:34.799Z,99958.59
2019-05-25T08:01:08.043Z,99960.86
2019-05-25T08:03:43.730Z,99958.92
2019-05-25T08:06:16.588Z,99960.05
2019-05-25T08:08:51.802Z,99955.63
2019-05-25T08:11:25.831Z,99958.47
2019-05-25T08:13:58.489Z,99955.66
2019-05-25T08:16:32.602Z,99958.73
2019-05-25T08:19:05.528Z,99955.95
2019-05-25T08:24:50.172Z,99945.33
2019-05-25T08:27:24.544Z,99936.69
2019-05-25T08:30:01.689Z,99929.72
2019-05-25T08:32:34.126Z,99935.25
2019-05-25T08:35:08.001Z,99928.60
2019-05-25T08:37:40.290Z,99935.56
2019-05-25T08:40:14.088Z,99928.65
2019-05-25T08:42:46.384Z,99917.97
2019-05-25T08:45:20.304Z,99920.72
2019-05-25T08:47:57.025Z,99917.42
2019-05-25T08:50:37.928Z,99911.53
2019-05-25T08:53:02.102Z,99902.20
2019-05-25T08:55:34.362Z,99898.02
2019-05-25T08:58:06.709Z,99902.11
2019-05-25T09:00:39.854Z,99900.13
2019-05-25T09:03:12.397Z,99898.56
2019-05-25T09:05:44.750Z,99887.74
2019-05-25T09:08:17.117Z,99881.86
2019-05-25T09:10:49.410Z,99885.56
2019-05-25T09:13:21.501Z,99887.70
2019-05-25T09:15:53.768Z,99885.34
2019-05-25T09:18:25.778Z,99886.09
2019-05-25T09:20:57.873Z,99892.21
2019-05-25T09:23:30.124Z,99883.64
2019-05-25T09:26:02.523Z,99889.78
2019-05-25T09:28:34.867Z,99896.05
2019-05-25T09:31:06.948Z,99885.29
2019-05-25T09:33:38.983Z,99880.91
2019-05-25T09:36:11.139Z,99880.75
2019-05-25T09:38:43.526Z,99881.76
2019-05-25T09:41:19.922Z,99874.36
2019-05-25T09:43:52.271Z,99871.14
2019-05-25T09:46:24.672Z,99859.89
2019-05-25T09:48:56.748Z,99860.00
2019-05-25T09:51:28.830Z,99848.98
2019-05-25T09:54:02.704Z,99852.30
2019-05-25T09:56:34.801Z,99854.48
2019-05-25T09:59:19.315Z,99851.53
2019-05-25T10:01:42.429Z,99859.05
2019-05-25T10:04:14.564Z,99856.44
2019-05-25T10:06:46.701Z,99846.78
2019-05-25T10:09:18.959Z,99845.55
2019-05-25T10:11:51.002Z,99842.91
2019-05-25T10:14:23.141Z,99837.30
2019-05-25T10:16:55.234Z,99840.73
2019-05-25T10:19:27.353Z,99846.48
2019-05-25T10:21:59.834Z,99872.41
2019-05-25T10:24:33.430Z,99874.00
2019-05-25T10:27:05.460Z,99891.81
2019-05-25T10:29:37.894Z,99884.55
2019-05-25T10:32:10.789Z,99884.00
2019-05-25T10:34:42.951Z,99897.88
2019-05-25T10:37:15.158Z,99901.58
2019-05-25T10:39:47.279Z,99905.96
2019-05-25T10:42:20.359Z,99907.16
2019-05-25T10:44:52.494Z,99916.99
2019-05-25T10:47:24.514Z,99913.89
2019-05-25T10:49:56.625Z,99910.21
2019-05-25T10:52:28.638Z,99920.91
2019-05-25T10:55:00.715Z,99917.70
2019-05-25T10:57:32.777Z,99910.27
2019-05-25T11:00:10.511Z,99901.48
2019-05-25T11:02:42.675Z,99883.98
2019-05-25T11:05:15.438Z,99871.37
2019-05-25T11:07:47.531Z,99872.56
2019-05-25T11:10:20.178Z,99877.59
2019-05-25T11:12:52.378Z,99880.64
2019-05-25T11:15:24.503Z,99875.83
2019-05-25T11:17:56.581Z,99887.34
2019-05-25T11:20:28.610Z,99884.89
2019-05-25T11:23:00.620Z,99887.72
2019-05-25T11:25:32.781Z,99884.81
2019-05-25T11:28:08.181Z,99892.06
2019-05-25T11:30:38.972Z,99879.89
2019-05-25T11:33:11.113Z,99877.48
2019-05-25T11:35:44.681Z,99875.26
2019-05-25T11:38:16.880Z,99876.13
2019-05-25T11:40:48.942Z,99879.74
2019-05-25T11:43:21.086Z,99887.81
2019-05-25T11:45:53.123Z,99893.52
2019-05-25T11:48:25.139Z,99898.28
2019-05-25T11:50:58.098Z,99891.86
2019-05-25T11:53:30.254Z,99896.03
2019-05-25T11:56:02.653Z,99895.45
2019-05-25T11:58:47.033Z,99899.79
2019-05-25T12:01:08.783Z,99902.10
2019-05-25T12:03:41.071Z,99902.48
2019-05-25T12:06:13.391Z,99907.20
2019-05-25T12:08:45.538Z,99909.88
2019-05-25T12:11:17.494Z,99911.10
2019-05-25T12:13:49.566Z,99919.94
2019-05-25T12:16:21.700Z,99915.51
2019-05-25T12:18:53.694Z,99915.57
2019-05-25T12:21:25.716Z,99922.90
2019-05-25T12:23:57.687Z,99919.44
2019-05-25T12:26:30.941Z,99918.30
2019-05-25T12:29:03.024Z,99909.41
2019-05-25T12:31:35.330Z,99900.05
2019-05-25T12:34:07.685Z,99902.08
2019-05-25T12:36:39.957Z,99906.56
2019-05-25T12:39:12.324Z,99907.11
2019-05-25T12:41:44.662Z,99902.27
2019-05-25T12:44:17.051Z,99897.00
2019-05-25T12:46:49.316Z,99890.06
2019-05-25T12:49:21.453Z,99882.88
2019-05-25T12:51:54.676Z,99879.13
2019-05-25T12:54:27.003Z,99865.02
2019-05-25T12:57:02.680Z,99861.57
2019-05-25T12:59:34.212Z,99852.82
2019-05-25T13:02:06.436Z,99841.23
2019-05-25T13:04:38.633Z,99843.77
2019-05-25T13:07:10.907Z,99840.48
2019-05-25T13:09:43.180Z,99836.13
2019-05-25T13:12:15.485Z,99836.34
2019-05-25T13:14:47.801Z,99839.48
2019-05-25T13:17:19.934Z,99840.69
2019-05-25T13:19:52.170Z,99839.34
2019-05-25T13:22:24.865Z,99839.06
2019-05-25T13:24:57.269Z,99838.81
2019-05-25T13:27:29.445Z,99843.58
2019-05-25T13:30:03.182Z,99834.39
2019-05-25T13:32:36.439Z,99835.23
2019-05-25T13:35:08.833Z,99831.84
2019-05-25T13:37:40.876Z,99839.06
2019-05-25T13:40:13.031Z,99833.28
2019-05-25T13:42:45.126Z,99834.42
2019-05-25T13:45:17.170Z,99831.95
2019-05-25T13:47:49.376Z,99829.42
2019-05-25T13:50:21.527Z,99815.17
2019-05-25T13:52:53.716Z,99824.88
2019-05-25T13:55:27.011Z,99820.74
2019-05-25T13:57:59.313Z,99814.34
2019-05-25T14:00:31.471Z,99812.94
2019-05-25T14:03:03.704Z,99810.44
2019-05-25T14:05:35.918Z,99809.63
2019-05-25T14:08:08.304Z,99800.72
2019-05-25T14:10:40.962Z,99797.10
2019-05-25T14:13:13.351Z,99795.48
2019-05-25T14:15:45.610Z,99793.80
2019-05-25T14:18:17.741Z,99793.25
2019-05-25T14:20:49.917Z,99795.73
2019-05-25T14:23:22.150Z,99793.22
2019-05-25T14:25:54.350Z,99785.98
2019-05-25T14:28:26.594Z,99792.36
2019-05-25T14:30:58.966Z,99787.63
2019-05-25T14:33:31.276Z,99785.69
2019-05-25T14:36:03.286Z,99786.77
2019-05-25T14:38:35.351Z,99783.42
2019-05-25T14:41:07.534Z,99789.02
2019-05-25T14:43:39.612Z,99794.30
2019-05-25T14:46:26.612Z,99794.05
2019-05-25T14:48:45.518Z,99794.34
2019-05-25T14:51:17.612Z,99793.77
2019-05-25T14:53:49.805Z,99796.55
2019-05-25T14:56:22.013Z,99792.66
2019-05-25T14:58:54.169Z,99802.95
2019-05-25T15:01:26.257Z,99801.00
2019-05-25T15:03:58.793Z,99801.02
2019-05-25T15:06:30.859Z,99798.77
2019-05-25T15:09:04.081Z,99800.73
2019-05-25T15:11:36.223Z,99802.13
2019-05-25T15:14:08.373Z,99800.17
2019-05-25T15:16:40.508Z,99807.41
2019-05-25T15:19:12.755Z,99812.42
2019-05-25T15:21:44.929Z,99810.75
2019-05-25T15:24:17.519Z,99817.73
2019-05-25T15:26:49.758Z,99817.70
2019-05-25T15:29:22.058Z,99813.55
2019-05-25T15:31:54.241Z,99814.41
2019-05-25T15:34:26.516Z,99815.22
2019-05-25T15:36:58.591Z,99809.38
2019-05-25T15:39:30.998Z,99806.89
2019-05-25T15:42:04.023Z,99813.00
2019-05-25T15:44:36.277Z,99819.43
2019-05-25T15:47:08.577Z,99822.19
2019-05-25T15:49:41.720Z,99821.86
2019-05-25T15:52:13.965Z,99814.36
2019-05-25T15:54:46.213Z,99818.76
2019-05-25T15:57:18.385Z,99814.81
2019-05-25T15:59:50.469Z,99819.02
2019-05-25T16:02:35.672Z,99809.84
2019-05-25T16:04:56.382Z,99818.20
2019-05-25T16:07:31.255Z,99818.44
2019-05-25T16:10:02.711Z,99807.30
2019-05-25T16:12:34.998Z,99808.95
2019-05-25T16:15:08.784Z,99803.67
2019-05-25T16:17:40.836Z,99805.82
2019-05-25T16:20:15.920Z,99813.95
2019-05-25T16:22:48.067Z,99819.17
2019-05-25T16:25:20.214Z,99813.53
2019-05-25T16:27:52.269Z,99815.95
2019-05-25T16:30:24.331Z,99808.70
2019-05-25T16:33:13.985Z,99809.85
2019-05-25T16:35:30.776Z,99816.50
2019-05-25T16:38:03.241Z,99816.22
2019-05-25T16:40:35.582Z,99818.13
2019-05-25T16:43:07.769Z,99813.85
2019-05-25T16:45:39.821Z,99810.19
2019-05-25T16:48:11.854Z,99816.55
2019-05-25T16:50:44.019Z,99809.00
2019-05-25T16:53:16.061Z,99813.13
2019-05-25T16:55:48.367Z,99807.56
2019-05-25T16:58:20.331Z,99809.49
2019-05-25T17:00:52.617Z,99809.22
2019-05-25T17:03:28.709Z,99810.22
2019-05-25T17:05:58.530Z,99808.56
2019-05-25T17:08:30.724Z,99808.20
2019-05-25T17:11:02.762Z,99804.27
2019-05-25T17:13:35.820Z,99813.92
2019-05-25T17:16:08.072Z,99810.30
2019-05-25T17:18:40.102Z,99810.55
2019-05-25T17:21:12.324Z,99810.51
2019-05-25T17:23:44.385Z,99811.58
2019-05-25T17:26:16.630Z,99817.28
2019-05-25T17:28:48.975Z,99812.59
2019-05-25T17:31:21.322Z,99817.81
2019-05-25T17:33:54.314Z,99815.89
2019-05-25T17:36:26.675Z,99817.49
2019-05-25T17:38:58.874Z,99815.45
2019-05-25T17:41:31.224Z,99809.59
2019-05-25T17:44:03.521Z,99813.62
2019-05-25T17:46:36.689Z,99810.22
2019-05-25T17:49:09.077Z,99815.74
2019-05-25T17:51:41.320Z,99817.15
2019-05-25T17:54:13.531Z,99818.53
2019-05-25T17:56:46.914Z,99821.50
2019-05-25T17:59:19.204Z,99824.02
2019-05-25T18:01:51.379Z,99828.23
2019-05-25T18:04:23.701Z,99832.70
2019-05-25T18:06:55.980Z,99835.70
2019-05-25T18:09:28.353Z,99838.19
2019-05-25T18:12:01.430Z,99839.83
2019-05-25T18:14:33.662Z,99846.44
2019-05-25T18:17:06.053Z,99844.47
2019-05-25T18:19:38.250Z,99848.55
2019-05-25T18:22:10.499Z,99839.55
2019-05-25T18:24:42.786Z,99851.38
2019-05-25T18:27:15.055Z,99847.69
2019-05-25T18:29:47.245Z,99846.77
2019-05-25T18:32:19.565Z,99856.69
2019-05-25T18:34:51.797Z,99850.84
2019-05-25T18:37:24.151Z,99848.37
2019-05-25T18:39:56.348Z,99848.87
2019-05-25T18:42:30.402Z,99859.13
2019-05-25T18:45:02.503Z,99854.02
2019-05-25T18:47:35.051Z,99853.45
2019-05-25T18:50:09.496Z,99852.92
2019-05-25T18:52:41.731Z,99849.56
2019-05-25T18:55:14.154Z,99844.41
2019-05-25T18:57:46.586Z,99843.77
2019-05-25T19:00:19.903Z,99841.59
2019-05-25T19:02:52.188Z,99845.01
2019-05-25T19:05:24.434Z,99841.67
2019-05-25T19:07:56.793Z,99838.14
2019-05-25T19:10:28.996Z,99833.99
2019-05-25T19:13:01.209Z,99835.22
2019-05-25T19:15:33.515Z,99834.77
2019-05-25T19:18:05.854Z,99831.13
2019-05-25T19:20:38.013Z,99836.95
2019-05-25T19:23:10.340Z,99837.87
2019-05-25T19:25:42.609Z,99842.84
2019-05-25T19:28:14.861Z,99843.97
2019-05-25T19:30:47.020Z,99850.97
2019-05-25T19:33:19.366Z,99847.20
2019-05-25T19:35:54.277Z,99843.91
2019-05-25T19:38:25.678Z,99846.70
2019-05-25T19:40:57.861Z,99834.83
2019-05-25T19:43:31.584Z,99838.55
2019-05-25T19:46:04.938Z,99834.83
2019-05-25T19:48:37.078Z,99836.66
2019-05-25T19:51:09.445Z,99838.66
2019-05-25T19:53:41.778Z,99835.09
2019-05-25T19:56:13.963Z,99829.73
2019-05-25T19:58:46.213Z,99833.11
2019-05-25T20:01:18.414Z,99832.59
2019-05-25T20:03:50.689Z,99825.60
2019-05-25T20:06:22.947Z,99827.24
2019-05-25T20:08:55.211Z,99833.09
2019-05-25T20:11:27.420Z,99832.53
2019-05-25T20:13:59.673Z,99836.16
2019-05-25T20:16:32.122Z,99831.19
2019-05-25T20:19:04.407Z,99838.89
2019-05-25T20:21:36.716Z,99835.02
2019-05-25T20:24:08.982Z,99833.02
2019-05-25T20:26:41.244Z,99834.17
2019-05-25T20:29:13.899Z,99833.63
2019-05-25T20:31:46.119Z,99831.14
2019-05-25T20:34:18.473Z,99829.48
2019-05-25T20:36:50.618Z,99827.22
2019-05-25T20:39:22.753Z,99828.94
2019-05-25T20:41:54.954Z,99832.19
2019-05-25T20:44:27.288Z,99828.35
2019-05-25T20:46:59.595Z,99823.86
2019-05-25T20:49:31.835Z,99831.02
2019-05-25T20:52:04.029Z,99833.48
2019-05-25T20:54:36.198Z,99825.17
2019-05-25T20:57:08.368Z,99832.09
2019-05-25T20:59:40.483Z,99833.38
2019-05-25T21:02:12.761Z,99830.08
2019-05-25T21:04:45.088Z,99828.05
2019-05-25T21:07:17.233Z,99831.13
2019-05-25T21:09:49.579Z,99833.84
2019-05-25T21:12:21.910Z,99837.18
2019-05-25T21:14:54.128Z,99832.69
2019-05-25T21:17:26.323Z,99829.92
2019-05-25T21:19:58.509Z,99832.16
2019-05-25T21:22:30.597Z,99828.56
2019-05-25T21:25:05.936Z,99837.25
2019-05-25T21:27:36.833Z,99838.14
2019-05-25T21:30:09.921Z,99837.78
2019-05-25T21:32:43.108Z,99834.11
2019-05-25T21:35:15.419Z,99833.29
2019-05-25T21:37:47.710Z,99841.54
2019-05-25T21:40:19.825Z,99833.97
2019-05-25T21:42:52.068Z,99833.44
2019-05-25T21:45:24.339Z,99832.67
2019-05-25T21:47:56.707Z,99830.39
2019-05-25T21:50:28.849Z,99826.49
2019-05-25T21:53:01.075Z,99829.20
2019-05-25T21:55:33.211Z,99826.66
2019-05-25T21:58:05.372Z,99827.20
2019-05-25T22:00:39.338Z,99830.13
2019-05-25T22:03:11.675Z,99831.59
2019-05-25T22:05:44.003Z,99830.36
2019-05-25T22:08:16.094Z,99825.61
2019-05-25T22:10:48.463Z,99838.71
2019-05-25T22:13:28.426Z,99832.81
2019-05-25T22:15:54.483Z,99831.32
2019-05-25T22:18:26.753Z,99831.97
2019-05-25T22:20:58.991Z,99830.22
2019-05-25T22:23:31.287Z,99833.75
2019-05-25T22:26:03.576Z,99830.36
2019-05-25T22:28:44.841Z,99826.20
2019-05-25T22:31:09.686Z,99835.89
2019-05-25T22:33:41.836Z,99832.02
2019-05-25T22:36:13.929Z,99831.23
2019-05-25T22:38:46.226Z,99832.36
2019-05-25T22:41:19.958Z,99829.94
2019-05-25T22:43:53.702Z,99829.34
2019-05-25T22:46:26.056Z,99825.73
2019-05-25T22:48:58.405Z,99827.11
2019-05-25T22:51:30.699Z,99831.09
2019-05-25T22:54:02.882Z,99826.94
2019-05-25T22:56:35.128Z,99821.13
2019-05-25T22:59:07.411Z,99822.42
2019-05-25T23:01:39.751Z,99828.49
2019-05-25T23:04:12.008Z,99824.23
2019-05-25T23:06:57.054Z,99825.61
2019-05-25T23:09:18.352Z,99816.97
2019-05-25T23:11:50.593Z,99822.50
2019-05-25T23:14:22.824Z,99815.59
2019-05-25T23:16:55.032Z,99815.05
2019-05-25T23:19:27.322Z,99809.06
2019-05-25T23:21:59.603Z,99814.51
2019-05-25T23:24:31.903Z,99815.80
2019-05-25T23:27:04.144Z,99818.44
2019-05-25T23:29:36.256Z,99823.44
2019-05-25T23:32:08.379Z,99826.02
2019-05-25T23:34:40.588Z,99823.44
2019-05-25T23:37:15.021Z,99808.98
2019-05-25T23:39:46.887Z,99809.14
2019-05-25T23:42:19.176Z,99814.50
2019-05-25T23:44:51.372Z,99812.55
2019-05-25T23:47:23.646Z,99809.69
2019-05-25T23:49:59.510Z,99813.30
2019-05-25T23:52:30.204Z,99807.11
2019-05-25T23:55:04.903Z,99811.89
2019-05-25T23:57:36.470Z,99806.89
